Time;durP1;ratioP1;P1;durP2;ratioP2;P2;SDS_P1;SDS_P2;PMS_P1;PMS_P2;Temp;Humidity;BMP_temperature;BMP_pressure;BME280_temperature;BME280_humidity;BME280_pressure;Samples;Min_cycle;Max_cycle;Signal;HPM_P1;HPM_P2
2022/08/23 00:01:53;;;;;;;;;;;24.60;60.50;;;;;;6098529;23;20307;-67
2022/08/23 00:04:22;;;;;;;6.85;1.80;;;24.60;60.40;;;;;;6097398;23;19901;-67
2022/08/23 00:06:49;;;;;;;3.95;2.00;;;24.60;60.80;;;;;;6097337;23;20041;-67
2022/08/23 00:09:17;;;;;;;7.47;2.17;;;24.60;61.10;;;;;;6097787;23;20370;-67
2022/08/23 00:12:17;;;;;;;6.47;1.92;;;24.60;61.20;;;;;;6097669;23;20456;-67
2022/08/23 00:14:50;;;;;;;3.38;1.88;;;24.60;61.40;;;;;;6097608;23;20422;-67
2022/08/23 00:17:16;;;;;;;3.47;1.83;;;24.60;61.40;;;;;;6097508;23;20022;-67
2022/08/23 00:19:43;;;;;;;1.98;1.65;;;24.60;61.90;;;;;;6097202;23;20045;-67
2022/08/23 00:22:10;;;;;;;5.70;2.00;;;24.60;61.40;;;;;;6097847;23;20120;-67
2022/08/23 00:24:37;;;;;;;12.30;2.17;;;24.50;61.40;;;;;;6097546;23;20522;-66
2022/08/23 00:27:15;;;;;;;6.90;2.00;;;24.50;61.80;;;;;;6097342;23;20013;-67
2022/08/23 00:29:45;;;;;;;2.55;2.10;;;24.60;62.20;;;;;;6097600;23;20014;-67
2022/08/23 00:32:14;;;;;;;5.22;2.05;;;24.50;62.20;;;;;;6097537;23;20058;-66
2022/08/23 00:34:41;;;;;;;6.25;1.90;;;24.50;62.60;;;;;;6097483;23;20006;-67
2022/08/23 00:37:08;;;;;;;5.13;2.10;;;24.50;62.80;;;;;;6097160;23;20017;-65
2022/08/23 00:39:34;;;;;;;3.47;1.67;;;24.60;62.50;;;;;;6097741;23;20095;-67
2022/08/23 00:47:38;;;;;;;7.22;2.65;;;24.60;62.40;;;;;;6097386;23;20404;-67
2022/08/23 00:47:38;;;;;;;4.82;1.67;;;24.50;63.30;;;;;;6097429;23;20146;-67
2022/08/23 00:50:38;;;;;;;5.93;1.60;;;24.50;63.50;;;;;;6097220;23;20002;-67
2022/08/23 00:53:11;;;;;;;10.65;2.10;;;24.50;63.60;;;;;;6081367;23;20017;-68
2022/08/23 00:55:39;;;;;;;3.42;1.80;;;24.50;63.90;;;;;;6096993;23;20066;-67
2022/08/23 00:58:07;;;;;;;7.38;3.05;;;24.50;64.20;;;;;;6094901;23;20025;-67
2022/08/23 01:00:33;;;;;;;5.25;1.83;;;24.50;64.70;;;;;;6095958;23;20006;-66
2022/08/23 01:03:00;;;;;;;2.75;1.58;;;24.40;65.00;;;;;;6097082;23;20011;-67
2022/08/23 01:05:32;;;;;;;6.32;1.65;;;24.40;65.10;;;;;;6097133;23;20003;-65
2022/08/23 01:07:58;;;;;;;7.50;2.53;;;24.40;65.20;;;;;;6096983;23;20009;-67
2022/08/23 01:10:38;;;;;;;3.45;1.90;;;24.40;65.10;;;;;;6097247;23;20010;-67
2022/08/23 01:13:42;;;;;;;6.18;1.92;;;24.40;65.00;;;;;;6096991;23;20007;-67
2022/08/23 01:16:20;;;;;;;7.88;2.40;;;24.40;65.50;;;;;;6097019;23;20441;-67
2022/08/23 01:18:47;;;;;;;6.32;2.30;;;24.40;65.80;;;;;;6096873;23;20022;-67
2022/08/23 01:21:44;;;;;;;6.82;1.55;;;24.40;65.60;;;;;;6097217;23;20501;-67
2022/08/23 01:24:12;;;;;;;3.00;2.20;;;24.40;65.90;;;;;;6097048;23;20006;-67
2022/08/23 01:26:38;;;;;;;10.18;2.50;;;24.40;66.00;;;;;;6097133;23;20034;-67
2022/08/23 01:29:06;;;;;;;2.72;1.70;;;24.40;65.80;;;;;;6096952;23;20006;-67
2022/08/23 01:31:32;;;;;;;2.92;2.10;;;24.30;65.50;;;;;;6096510;23;20006;-67
2022/08/23 01:34:08;;;;;;;5.45;1.98;;;24.30;65.30;;;;;;6096858;23;20376;-67
2022/08/23 01:36:34;;;;;;;3.80;1.83;;;24.30;65.40;;;;;;6097081;23;20014;-67
2022/08/23 01:39:01;;;;;;;4.70;2.22;;;24.30;65.70;;;;;;6096767;23;20010;-67
2022/08/23 01:41:27;;;;;;;3.67;2.15;;;24.30;66.00;;;;;;6097249;23;19998;-67
2022/08/23 01:43:53;;;;;;;5.88;2.30;;;24.30;65.90;;;;;;6096520;23;20002;-67
2022/08/23 01:46:21;;;;;;;5.75;1.90;;;24.30;66.10;;;;;;6097251;23;20030;-67
2022/08/23 01:48:48;;;;;;;7.90;1.65;;;24.20;66.30;;;;;;6096804;23;20080;-67
2022/08/23 01:51:18;;;;;;;9.35;2.08;;;24.20;66.50;;;;;;6096826;23;20361;-67
2022/08/23 01:53:45;;;;;;;2.90;1.75;;;24.20;66.50;;;;;;6097107;23;20003;-67
2022/08/23 01:56:12;;;;;;;4.53;1.92;;;24.20;66.70;;;;;;6096902;23;20337;-67
2022/08/23 01:58:37;;;;;;;5.10;2.40;;;24.20;66.50;;;;;;6096207;23;20145;-66
2022/08/23 02:01:04;;;;;;;5.90;1.83;;;24.20;66.10;;;;;;6096445;23;20022;-67
2022/08/23 02:03:30;;;;;;;2.85;1.90;;;24.20;66.30;;;;;;6096700;23;20014;-66
2022/08/23 02:05:57;;;;;;;6.43;1.83;;;24.20;66.70;;;;;;6096655;23;20448;-67
2022/08/23 02:11:14;;;;;;;7.60;2.28;;;24.10;66.80;;;;;;6096738;23;20013;-66
2022/08/23 02:13:40;;;;;;;3.72;2.08;;;24.20;66.60;;;;;;6096624;23;20035;-67
2022/08/23 02:16:06;;;;;;;7.55;2.13;;;24.10;66.30;;;;;;6096719;23;20017;-66
2022/08/23 02:18:32;;;;;;;6.55;2.35;;;24.00;66.50;;;;;;6096711;23;20422;-67
2022/08/23 02:20:59;;;;;;;2.70;1.95;;;24.00;66.80;;;;;;6096539;23;20414;-67
2022/08/23 02:23:25;;;;;;;6.30;2.20;;;24.00;67.20;;;;;;6096905;23;20038;-67
2022/08/23 02:25:52;;;;;;;5.32;1.98;;;24.00;67.30;;;;;;6097087;23;20003;-67
2022/08/23 02:28:19;;;;;;;5.35;2.25;;;24.00;67.40;;;;;;6096547;23;20006;-66
2022/08/23 02:30:46;;;;;;;4.88;2.10;;;24.00;67.90;;;;;;6096879;23;20345;-67
2022/08/23 02:33:13;;;;;;;11.68;2.13;;;24.00;68.20;;;;;;6097033;23;20015;-67
2022/08/23 02:35:40;;;;;;;5.93;2.30;;;24.00;68.10;;;;;;6097007;23;20010;-67
2022/08/23 02:38:07;;;;;;;6.90;2.10;;;23.90;68.20;;;;;;6096834;23;20014;-67
2022/08/23 02:40:34;;;;;;;5.80;2.20;;;23.90;68.20;;;;;;6096975;23;20073;-66
2022/08/23 02:43:01;;;;;;;4.35;2.00;;;23.90;68.70;;;;;;6096652;23;20017;-66
2022/08/23 02:45:27;;;;;;;4.65;1.95;;;23.90;68.90;;;;;;6096607;23;20038;-67
2022/08/23 02:47:55;;;;;;;3.08;2.10;;;23.90;68.80;;;;;;6096548;23;20002;-67
2022/08/23 02:50:21;;;;;;;4.53;2.17;;;23.90;68.80;;;;;;6096337;23;20333;-66
2022/08/23 02:52:47;;;;;;;7.45;2.28;;;23.90;69.00;;;;;;6096553;23;19998;-66
2022/08/23 02:55:13;;;;;;;2.67;1.98;;;23.80;69.00;;;;;;6096524;23;20003;-66
2022/08/23 02:57:39;;;;;;;4.82;2.20;;;23.80;69.10;;;;;;6096507;23;20025;-66
2022/08/23 03:00:08;;;;;;;3.20;2.50;;;23.80;69.20;;;;;;6096432;23;20018;-67
2022/08/23 03:02:35;;;;;;;7.55;2.53;;;23.80;69.10;;;;;;6096736;23;20006;-67
2022/08/23 03:05:01;;;;;;;5.30;1.98;;;23.80;68.60;;;;;;6096726;23;20003;-66
2022/08/23 03:07:27;;;;;;;6.72;1.95;;;23.80;68.40;;;;;;6096518;23;20013;-67
2022/08/23 03:09:53;;;;;;;4.78;2.00;;;23.80;68.70;;;;;;6096509;23;20006;-67
2022/08/23 03:12:18;;;;;;;3.80;1.80;;;23.80;68.80;;;;;;6096271;23;19998;-67
2022/08/23 03:14:45;;;;;;;4.38;2.10;;;23.70;68.40;;;;;;6097360;23;20002;-67
2022/08/23 03:17:10;;;;;;;3.33;1.70;;;23.80;68.40;;;;;;6096490;23;20021;-67
2022/08/23 03:19:36;;;;;;;2.25;1.80;;;23.80;68.10;;;;;;6096653;23;20023;-67
2022/08/23 03:22:02;;;;;;;8.23;2.10;;;23.80;67.70;;;;;;6096669;23;20065;-67
2022/08/23 03:24:28;;;;;;;3.47;1.58;;;23.80;67.20;;;;;;6096551;23;19999;-67
2022/08/23 03:26:53;;;;;;;3.30;1.70;;;23.70;66.30;;;;;;6097267;23;20006;-66
2022/08/23 03:29:19;;;;;;;1.95;1.60;;;23.70;66.00;;;;;;6098240;23;20418;-67
2022/08/23 03:31:45;;;;;;;1.98;1.33;;;23.70;65.70;;;;;;6097973;23;20002;-67
2022/08/23 03:34:11;;;;;;;5.40;1.85;;;23.70;65.70;;;;;;6072600;23;20006;-67
2022/08/23 03:36:37;;;;;;;3.08;1.77;;;23.70;65.50;;;;;;6098030;23;20007;-66
2022/08/23 03:39:04;;;;;;;3.00;1.83;;;23.70;65.70;;;;;;6098195;23;20026;-67
2022/08/23 03:41:30;;;;;;;2.83;1.80;;;23.70;66.00;;;;;;6097887;23;20038;-67
2022/08/23 03:43:55;;;;;;;6.80;2.00;;;23.70;66.20;;;;;;6097785;23;20006;-66
2022/08/23 03:46:22;;;;;;;6.05;1.90;;;23.70;66.00;;;;;;6098209;23;20460;-66
2022/08/23 03:48:53;;;;;;;6.15;2.00;;;23.70;65.70;;;;;;6097992;23;20501;-67
2022/08/23 03:51:20;;;;;;;5.40;1.80;;;23.70;65.70;;;;;;6098080;23;20050;-67
2022/08/23 03:53:46;;;;;;;2.85;1.70;;;23.70;65.60;;;;;;6098094;23;20018;-67
2022/08/23 03:56:28;;;;;;;3.25;1.60;;;23.60;65.20;;;;;;6097965;23;20010;-67
2022/08/23 03:58:54;;;;;;;4.67;1.70;;;23.60;65.00;;;;;;6097627;23;20022;-68
2022/08/23 04:01:20;;;;;;;2.60;1.52;;;23.60;64.90;;;;;;6097693;23;20677;-66
2022/08/23 04:03:47;;;;;;;1.90;1.70;;;23.60;64.90;;;;;;6097790;23;20014;-67
2022/08/23 04:06:13;;;;;;;4.35;1.70;;;23.60;64.80;;;;;;6097461;23;20081;-67
2022/08/23 04:08:39;;;;;;;5.75;1.65;;;23.60;64.60;;;;;;6097725;23;20011;-67
2022/08/23 04:11:05;;;;;;;4.35;1.65;;;23.60;64.70;;;;;;6097775;23;20452;-67
2022/08/23 04:13:31;;;;;;;3.83;1.80;;;23.60;64.40;;;;;;6097596;23;20073;-66
2022/08/23 04:15:57;;;;;;;2.80;1.52;;;23.60;64.30;;;;;;6097923;23;20428;-67
2022/08/23 04:18:23;;;;;;;6.50;1.83;;;23.60;64.30;;;;;;6097527;23;20046;-67
2022/08/23 04:20:49;;;;;;;4.15;1.70;;;23.60;64.30;;;;;;6097826;23;20077;-67
2022/08/23 04:23:14;;;;;;;5.53;1.85;;;23.60;64.40;;;;;;6097650;23;20058;-66
2022/08/23 04:25:44;;;;;;;4.45;2.00;;;23.60;64.40;;;;;;6097404;23;20486;-67
2022/08/23 04:28:10;;;;;;;4.70;1.58;;;23.60;64.20;;;;;;6097592;23;20002;-67
2022/08/23 04:30:37;;;;;;;3.38;1.42;;;23.60;64.10;;;;;;6097865;23;20030;-67
2022/08/23 04:33:03;;;;;;;2.83;1.70;;;23.60;63.80;;;;;;6097706;23;20338;-67
2022/08/23 04:35:29;;;;;;;2.50;1.38;;;23.60;63.70;;;;;;6097692;23;20002;-68
2022/08/23 04:37:55;;;;;;;4.22;1.80;;;23.60;63.30;;;;;;6097099;23;20015;-66
2022/08/23 04:43:07;;;;;;;4.03;1.63;;;23.60;62.90;;;;;;6097414;23;20038;-66
2022/08/23 04:45:33;;;;;;;3.47;1.50;;;23.60;62.80;;;;;;6097151;23;19998;-68
2022/08/23 04:47:59;;;;;;;8.05;1.70;;;23.60;62.40;;;;;;6097345;23;20086;-68
2022/08/23 04:50:24;;;;;;;2.30;1.42;;;23.60;62.20;;;;;;6097413;23;20058;-67
2022/08/23 04:52:50;;;;;;;5.18;1.45;;;23.60;62.00;;;;;;6097510;23;20002;-67
2022/08/23 04:55:16;;;;;;;2.30;1.60;;;23.60;61.90;;;;;;6097331;23;20014;-67
2022/08/23 04:57:42;;;;;;;2.08;1.50;;;23.60;62.10;;;;;;6097063;23;20146;-67
2022/08/23 05:00:13;;;;;;;2.35;1.50;;;23.60;62.00;;;;;;6097366;23;20030;-67
2022/08/23 05:02:38;;;;;;;2.22;1.38;;;23.60;62.00;;;;;;6097306;23;20337;-68
2022/08/23 05:05:05;;;;;;;2.95;1.83;;;23.60;61.90;;;;;;6096784;23;19999;-68
2022/08/23 05:07:32;;;;;;;2.08;1.60;;;23.60;61.80;;;;;;6097191;23;20022;-68
2022/08/23 05:09:58;;;;;;;2.75;1.33;;;23.60;61.60;;;;;;6097168;23;20014;-68
2022/08/23 05:12:23;;;;;;;3.03;1.48;;;23.60;61.40;;;;;;6097548;23;20045;-68
2022/08/23 05:14:49;;;;;;;3.05;1.67;;;23.60;61.30;;;;;;6096815;23;20064;-68
2022/08/23 05:17:15;;;;;;;4.47;1.38;;;23.50;61.20;;;;;;6096935;23;20081;-68
2022/08/23 05:19:41;;;;;;;3.72;1.50;;;23.50;61.40;;;;;;6097131;23;20468;-68
2022/08/23 05:22:06;;;;;;;2.15;1.38;;;23.50;61.40;;;;;;6096773;23;20002;-68
2022/08/23 05:24:32;;;;;;;3.05;1.20;;;23.50;61.30;;;;;;6096905;23;20010;-68
2022/08/23 05:26:58;;;;;;;3.88;1.50;;;23.60;61.30;;;;;;6097306;23;20014;-67
2022/08/23 05:29:23;;;;;;;5.57;1.70;;;23.50;61.20;;;;;;6097015;23;20334;-67
2022/08/23 05:31:49;;;;;;;3.65;1.50;;;23.50;61.00;;;;;;6097316;23;20006;-67
2022/08/23 05:34:15;;;;;;;1.95;1.50;;;23.50;60.90;;;;;;6097415;23;20386;-67
2022/08/23 05:36:40;;;;;;;3.25;1.60;;;23.50;60.80;;;;;;6097183;23;20006;-67
2022/08/23 05:39:07;;;;;;;2.42;1.30;;;23.50;60.90;;;;;;6097018;23;20319;-67
2022/08/23 05:41:32;;;;;;;4.18;1.60;;;23.50;60.90;;;;;;6097234;23;20034;-67
2022/08/23 05:43:58;;;;;;;4.38;1.40;;;23.50;60.90;;;;;;6097123;23;20434;-66
2022/08/23 05:46:24;;;;;;;3.03;1.40;;;23.50;60.70;;;;;;6097156;23;19998;-67
2022/08/23 05:48:51;;;;;;;3.15;1.67;;;23.50;60.40;;;;;;6096863;23;20014;-67
2022/08/23 05:51:17;;;;;;;1.75;1.27;;;23.50;60.10;;;;;;6096731;23;19998;-67
2022/08/23 05:53:44;;;;;;;2.72;1.40;;;23.50;59.90;;;;;;6096971;23;20014;-67
2022/08/23 05:56:30;;;;;;;3.42;1.60;;;23.50;59.90;;;;;;6096884;23;19999;-67
2022/08/23 05:58:59;;;;;;;3.75;1.50;;;23.60;59.80;;;;;;6096502;23;20117;-67
2022/08/23 06:01:27;;;;;;;3.25;1.80;;;23.50;59.30;;;;;;6096867;23;19999;-67
2022/08/23 06:03:53;;;;;;;2.67;1.55;;;23.60;59.20;;;;;;6097087;23;20011;-67
2022/08/23 06:06:19;;;;;;;5.63;2.00;;;23.60;59.50;;;;;;6096621;23;20003;-67
2022/08/23 06:08:47;;;;;;;5.05;1.83;;;23.60;59.50;;;;;;6096785;23;20018;-67
2022/08/23 06:11:22;;;;;;;2.67;2.00;;;23.60;59.30;;;;;;6096721;23;20038;-67
2022/08/23 06:13:50;;;;;;;2.08;1.88;;;23.60;59.30;;;;;;6096985;23;20010;-68
2022/08/23 06:16:19;;;;;;;2.80;1.75;;;23.60;59.30;;;;;;6096965;23;20332;-67
2022/08/23 06:18:46;;;;;;;3.10;2.17;;;23.60;59.40;;;;;;6097234;23;20078;-67
2022/08/23 06:21:13;;;;;;;5.28;1.92;;;23.60;59.60;;;;;;6096778;23;20033;-67
2022/08/23 06:23:40;;;;;;;4.30;1.90;;;23.60;59.60;;;;;;6096869;23;20061;-67
2022/08/23 06:26:39;;;;;;;2.40;1.75;;;23.60;59.70;;;;;;6096725;23;20006;-67
2022/08/23 06:29:08;;;;;;;2.95;1.70;;;23.60;59.70;;;;;;6092098;23;20006;-67
2022/08/23 06:31:49;;;;;;;3.40;2.08;;;23.60;59.50;;;;;;6096931;23;20017;-68
2022/08/23 06:34:32;;;;;;;4.93;2.20;;;23.70;59.50;;;;;;6096705;23;19999;-67
2022/08/23 06:37:03;;;;;;;3.85;2.80;;;23.70;59.50;;;;;;6096821;23;20007;-67
2022/08/23 06:39:31;;;;;;;4.57;2.50;;;23.60;59.70;;;;;;6096571;23;20010;-68
2022/08/23 06:42:03;;;;;;;9.02;2.28;;;23.70;60.10;;;;;;6096805;23;20006;-67
2022/08/23 06:44:30;;;;;;;7.25;2.40;;;23.70;60.30;;;;;;6096260;23;20010;-67
2022/08/23 06:46:56;;;;;;;3.83;2.20;;;23.70;60.30;;;;;;6096705;23;20002;-67
2022/08/23 06:49:22;;;;;;;6.95;2.15;;;23.70;60.30;;;;;;6096469;23;20053;-67
2022/08/23 06:51:51;;;;;;;4.60;2.20;;;23.80;60.50;;;;;;6096073;23;20009;-67
2022/08/23 06:54:19;;;;;;;4.50;1.80;;;23.80;60.50;;;;;;6096684;23;20010;-66
2022/08/23 06:56:47;;;;;;;3.00;1.80;;;23.80;60.50;;;;;;6096131;23;20126;-67
2022/08/23 06:59:13;;;;;;;5.22;2.03;;;23.80;60.50;;;;;;6095255;23;20026;-67
2022/08/23 07:01:45;;;;;;;2.67;1.70;;;23.80;60.40;;;;;;6096053;23;19998;-67
2022/08/23 07:04:13;;;;;;;3.30;1.80;;;23.90;60.50;;;;;;6097613;23;20050;-67
2022/08/23 07:06:39;;;;;;;6.55;1.60;;;23.90;60.60;;;;;;6098778;23;20370;-67
2022/08/23 07:09:06;;;;;;;4.68;2.05;;;23.90;60.60;;;;;;6098297;23;20003;-67
2022/08/23 07:11:31;;;;;;;6.53;1.42;;;23.90;60.40;;;;;;6098451;23;20007;-67
2022/08/23 07:14:03;;;;;;;3.17;1.50;;;24.00;59.90;;;;;;6097654;23;20311;-67
2022/08/23 07:16:38;;;;;;;2.45;1.88;;;24.00;59.00;;;;;;6097333;23;20006;-67
2022/08/23 07:19:04;;;;;;;3.03;1.50;;;24.00;58.40;;;;;;6097170;23;20061;-67
2022/08/23 07:21:31;;;;;;;2.53;1.67;;;24.00;58.30;;;;;;6097758;23;20009;-67
2022/08/23 07:23:57;;;;;;;3.13;1.65;;;24.10;58.20;;;;;;6097244;23;20057;-67
2022/08/23 07:26:24;;;;;;;3.15;1.50;;;24.10;58.20;;;;;;6098132;23;20358;-67
2022/08/23 07:28:50;;;;;;;4.68;1.50;;;24.10;58.50;;;;;;6098386;23;20007;-67
2022/08/23 07:31:29;;;;;;;3.08;1.80;;;24.20;58.30;;;;;;6098447;23;20085;-68
2022/08/23 07:33:57;;;;;;;3.40;1.42;;;24.20;58.10;;;;;;6097991;23;20085;-67
2022/08/23 07:36:25;;;;;;;4.20;1.50;;;24.30;58.00;;;;;;6098593;23;20095;-66
2022/08/23 07:38:51;;;;;;;3.60;1.90;;;24.30;58.10;;;;;;6098494;23;20058;-66
2022/08/23 07:41:18;;;;;;;4.35;1.60;;;24.30;58.50;;;;;;6098193;23;20070;-67
2022/08/23 07:43:44;;;;;;;2.70;1.50;;;24.40;58.30;;;;;;6098516;23;20061;-67
2022/08/23 07:46:10;;;;;;;3.47;1.55;;;24.40;58.00;;;;;;6098187;23;20371;-67
2022/08/23 07:48:37;;;;;;;2.75;1.40;;;24.50;57.80;;;;;;6098476;23;20045;-67
2022/08/23 07:51:06;;;;;;;3.30;1.60;;;24.50;57.40;;;;;;6098382;23;20322;-67
2022/08/23 07:53:32;;;;;;;2.40;1.17;;;24.60;57.10;;;;;;6097916;23;20453;-66
2022/08/23 07:55:58;;;;;;;2.15;1.30;;;24.60;56.90;;;;;;6097899;23;20065;-67
2022/08/23 07:58:25;;;;;;;2.47;1.38;;;24.60;56.80;;;;;;6097857;23;20022;-66
2022/08/23 08:00:51;;;;;;;1.92;1.25;;;24.70;56.90;;;;;;6097840;23;20006;-67
2022/08/23 08:03:18;;;;;;;3.45;1.17;;;24.70;56.90;;;;;;6098041;23;20007;-67
2022/08/23 08:05:44;;;;;;;1.83;1.23;;;24.70;57.10;;;;;;6098391;23;20073;-67
2022/08/23 08:08:10;;;;;;;6.93;1.30;;;24.70;57.00;;;;;;6097696;23;20468;-66
2022/08/23 08:10:42;;;;;;;3.10;1.30;;;24.80;56.80;;;;;;6097920;23;20002;-67
2022/08/23 08:13:09;;;;;;;3.83;1.38;;;24.80;56.70;;;;;;6097422;23;20042;-67
2022/08/23 08:15:35;;;;;;;1.75;1.25;;;24.80;56.50;;;;;;6098252;23;20002;-66
2022/08/23 08:18:01;;;;;;;1.77;1.20;;;24.80;56.30;;;;;;6097619;23;20045;-67
2022/08/23 08:20:27;;;;;;;3.50;1.23;;;24.80;56.10;;;;;;6097834;23;20034;-66
2022/08/23 08:22:54;;;;;;;3.05;1.27;;;24.80;56.30;;;;;;6097966;23;20430;-67
2022/08/23 08:25:20;;;;;;;4.95;1.27;;;24.90;56.70;;;;;;6097690;23;19998;-67
2022/08/23 08:27:47;;;;;;;5.55;1.30;;;25.00;57.20;;;;;;6098059;23;20071;-67
2022/08/23 08:30:13;;;;;;;5.40;1.30;;;25.00;57.00;;;;;;6097934;23;20069;-67
2022/08/23 08:32:39;;;;;;;4.18;1.38;;;25.00;56.70;;;;;;6097958;23;20388;-67
2022/08/23 08:35:06;;;;;;;1.92;1.20;;;25.00;56.40;;;;;;6097267;23;20010;-67
2022/08/23 08:37:31;;;;;;;2.65;1.23;;;25.10;56.10;;;;;;6097541;23;20042;-67
2022/08/23 08:39:58;;;;;;;2.55;1.25;;;25.20;56.40;;;;;;6097944;23;20378;-66
2022/08/23 08:42:32;;;;;;;2.08;1.10;;;25.20;56.30;;;;;;6097656;23;20003;-67
2022/08/23 08:45:04;;;;;;;3.83;1.20;;;25.20;56.30;;;;;;6097780;23;20311;-66
2022/08/23 08:47:35;;;;;;;2.90;1.45;;;25.30;56.50;;;;;;6097624;23;20037;-67
2022/08/23 08:50:06;;;;;;;4.53;1.40;;;25.30;56.70;;;;;;6097519;23;20039;-67
2022/08/23 08:52:39;;;;;;;3.35;1.70;;;25.30;56.60;;;;;;6097666;23;20058;-67
2022/08/23 08:55:15;;;;;;;2.17;1.38;;;25.40;56.50;;;;;;6097338;23;20006;-67
2022/08/23 08:57:43;;;;;;;2.30;1.10;;;25.40;56.10;;;;;;6097463;23;20014;-67
2022/08/23 09:00:19;;;;;;;3.63;1.00;;;25.40;55.70;;;;;;6097428;23;20341;-66
2022/08/23 09:02:45;;;;;;;1.63;1.20;;;25.40;55.20;;;;;;6097451;23;20017;-66
2022/08/23 09:05:17;;;;;;;3.85;1.30;;;25.40;55.20;;;;;;6097594;23;20014;-67
2022/08/23 09:07:43;;;;;;;3.95;1.50;;;25.50;55.50;;;;;;6097101;23;20045;-67
2022/08/23 09:10:33;;;;;;;4.18;1.20;;;25.50;55.60;;;;;;6097214;23;20006;-66
2022/08/23 09:13:19;;;;;;;3.65;1.40;;;25.50;55.70;;;;;;6097178;23;20441;-67
2022/08/23 09:16:07;;;;;;;7.03;1.30;;;25.60;55.80;;;;;;6097306;23;20430;-67
2022/08/23 09:18:34;;;;;;;5.28;1.42;;;25.60;55.90;;;;;;6097397;23;20453;-66
2022/08/23 09:21:02;;;;;;;3.72;1.25;;;25.60;55.90;;;;;;6097116;23;19999;-67
2022/08/23 09:23:33;;;;;;;2.08;1.20;;;25.70;55.80;;;;;;6097404;23;20448;-66
2022/08/23 09:26:01;;;;;;;2.20;1.23;;;25.80;56.30;;;;;;6096891;23;20007;-67
2022/08/23 09:28:34;;;;;;;2.42;1.10;;;25.90;55.90;;;;;;6097036;23;20367;-66
2022/08/23 09:31:00;;;;;;;1.92;1.23;;;25.90;55.90;;;;;;6097140;23;19999;-67
2022/08/23 09:33:38;;;;;;;1.45;1.13;;;26.00;55.80;;;;;;6097844;23;20014;-67
2022/08/23 09:36:24;;;;;;;1.85;1.17;;;26.00;55.40;;;;;;6097232;23;20033;-67
2022/08/23 09:38:56;;;;;;;2.03;1.17;;;26.00;55.00;;;;;;6097658;23;20018;-67
2022/08/23 09:41:31;;;;;;;3.53;1.40;;;26.10;55.00;;;;;;6097402;23;20061;-67
2022/08/23 09:44:00;;;;;;;1.77;1.30;;;26.10;55.20;;;;;;6097192;23;20037;-67
2022/08/23 09:46:29;;;;;;;6.15;1.27;;;26.10;55.50;;;;;;6097186;23;20459;-67
2022/08/23 09:49:00;;;;;;;4.32;1.15;;;26.10;55.60;;;;;;6097359;23;20015;-67
2022/08/23 09:51:28;;;;;;;4.43;1.30;;;26.30;55.70;;;;;;6097436;23;20026;-67
2022/08/23 09:54:17;;;;;;;5.63;1.70;;;26.40;55.20;;;;;;6097479;23;20315;-67
2022/08/23 09:56:57;;;;;;;7.20;1.35;;;26.50;54.90;;;;;;6096854;23;20389;-66
2022/08/23 09:59:25;;;;;;;5.43;1.27;;;26.70;54.80;;;;;;6096893;23;20022;-67
2022/08/23 10:01:55;;;;;;;2.88;1.17;;;26.80;54.30;;;;;;6097296;23;20432;-67
2022/08/23 10:04:26;;;;;;;4.28;1.30;;;26.90;53.40;;;;;;6097215;23;20069;-67
2022/08/23 10:06:52;;;;;;;2.22;1.10;;;27.00;53.50;;;;;;6097682;23;20037;-67
2022/08/23 10:09:31;;;;;;;2.05;1.13;;;27.20;53.20;;;;;;6097354;23;20006;-67
2022/08/23 10:11:59;;;;;;;2.20;1.30;;;27.30;53.20;;;;;;6097337;23;20007;-67
2022/08/23 10:14:27;;;;;;;2.63;1.00;;;27.30;52.20;;;;;;6096967;23;20005;-67
2022/08/23 10:17:13;;;;;;;5.45;1.05;;;27.40;51.80;;;;;;6097249;23;20006;-67
2022/08/23 10:20:07;;;;;;;2.65;1.00;;;27.40;51.90;;;;;;6096967;23;20464;-67
2022/08/23 10:22:47;;;;;;;2.35;1.00;;;27.50;51.30;;;;;;6097045;23;20026;-67
2022/08/23 10:25:21;;;;;;;1.83;0.98;;;27.50;51.50;;;;;;6096865;23;19998;-67
2022/08/23 10:31:00;;;;;;;1.42;0.80;;;27.50;50.40;;;;;;6097063;23;20345;-67
2022/08/23 10:33:48;;;;;;;2.10;1.10;;;27.50;50.50;;;;;;6096933;23;20042;-67
2022/08/23 10:36:15;;;;;;;1.42;0.85;;;27.50;50.60;;;;;;6098069;23;20014;-67
2022/08/23 10:39:00;;;;;;;1.70;1.10;;;27.60;50.70;;;;;;6099468;23;20057;-67
2022/08/23 10:41:48;;;;;;;8.05;1.10;;;27.60;50.10;;;;;;6098986;23;20002;-67
2022/08/23 10:44:32;;;;;;;1.38;0.82;;;27.70;50.40;;;;;;6098593;23;20014;-67
2022/08/23 10:47:09;;;;;;;2.30;0.98;;;27.70;49.60;;;;;;6098946;23;20464;-67
2022/08/23 10:49:38;;;;;;;2.40;1.00;;;27.70;49.90;;;;;;6099226;23;20006;-66
2022/08/23 10:52:08;;;;;;;4.30;1.20;;;27.70;49.50;;;;;;6098736;23;20337;-67
2022/08/23 10:54:45;;;;;;;2.15;1.10;;;27.70;50.50;;;;;;6099125;23;20057;-67
2022/08/23 10:57:15;;;;;;;1.80;1.13;;;27.70;51.30;;;;;;6098673;23;20042;-67
2022/08/23 10:59:45;;;;;;;2.17;1.52;;;27.80;51.10;;;;;;6098351;23;20052;-67
2022/08/23 11:02:36;;;;;;;4.07;1.10;;;27.90;50.90;;;;;;6098968;23;20386;-67
2022/08/23 11:05:06;;;;;;;3.53;0.95;;;28.00;50.60;;;;;;6098774;23;20383;-67
2022/08/23 11:07:35;;;;;;;2.15;0.95;;;28.00;49.90;;;;;;6098586;23;20434;-67
2022/08/23 11:10:04;;;;;;;4.13;1.27;;;28.00;50.10;;;;;;6098582;23;19998;-66
2022/08/23 11:12:34;;;;;;;3.92;0.93;;;28.00;48.90;;;;;;6098708;23;20058;-67
2022/08/23 11:15:09;;;;;;;2.33;1.00;;;28.00;49.30;;;;;;6098794;23;20037;-66
2022/08/23 11:17:54;;;;;;;2.13;0.90;;;27.90;48.90;;;;;;6098190;23;20430;-67
2022/08/23 11:20:48;;;;;;;2.00;1.08;;;27.80;49.90;;;;;;6098541;23;20025;-66
2022/08/23 11:23:14;;;;;;;1.58;0.80;;;27.80;49.00;;;;;;6098510;23;20037;-67
2022/08/23 11:25:42;;;;;;;2.30;0.90;;;27.80;48.70;;;;;;6072924;23;20021;-67
2022/08/23 11:28:26;;;;;;;1.30;0.90;;;27.80;47.60;;;;;;6098343;23;19998;-67
2022/08/23 11:31:07;;;;;;;2.72;0.95;;;27.80;47.20;;;;;;6098595;23;20061;-66
2022/08/23 11:33:35;;;;;;;2.13;1.00;;;27.80;48.20;;;;;;6098476;23;20065;-67
2022/08/23 11:36:19;;;;;;;1.77;0.70;;;27.80;48.50;;;;;;6098463;23;20002;-67
2022/08/23 11:38:48;;;;;;;2.72;0.88;;;27.80;47.80;;;;;;6098371;23;20135;-67
2022/08/23 11:41:20;;;;;;;1.05;0.80;;;27.80;48.30;;;;;;6098517;23;19999;-67
2022/08/23 11:43:45;;;;;;;;;;;27.90;48.30;;;;;;6098692;23;20006;-67
2022/08/23 11:46:35;;;;;;;2.45;1.10;;;28.10;48.50;;;;;;6098180;23;20324;-66
2022/08/23 11:49:12;;;;;;;3.38;1.10;;;28.20;49.60;;;;;;6098054;23;20496;-67
2022/08/23 11:51:48;;;;;;;4.38;1.10;;;28.50;50.70;;;;;;6098108;23;20003;-67
2022/08/23 11:54:41;;;;;;;1.98;0.90;;;28.70;48.90;;;;;;6098037;23;20026;-67
2022/08/23 11:57:25;;;;;;;2.80;1.08;;;28.90;48.50;;;;;;6053373;23;20038;-67
2022/08/23 12:00:24;;;;;;;1.40;0.98;;;29.10;47.90;;;;;;6098050;23;20353;-67
2022/08/23 12:03:04;;;;;;;3.28;1.52;;;29.30;48.00;;;;;;6053583;23;20014;-67
2022/08/23 12:05:33;;;;;;;2.28;1.10;;;29.50;48.20;;;;;;6097860;23;20003;-67
2022/08/23 12:08:01;;;;;;;1.55;0.98;;;29.50;46.80;;;;;;6097777;23;20037;-67
2022/08/23 12:10:39;;;;;;;2.75;1.00;;;29.40;47.20;;;;;;6097757;23;20010;-67
2022/08/23 12:13:17;;;;;;;3.28;0.95;;;29.40;47.60;;;;;;6097989;23;20430;-67
2022/08/23 12:16:08;;;;;;;2.22;1.23;;;29.40;48.10;;;;;;6098374;23;20014;-67
2022/08/23 12:18:56;;;;;;;4.43;1.17;;;29.30;47.60;;;;;;6098058;23;20018;-67
2022/08/23 12:21:31;;;;;;;1.98;0.90;;;29.30;47.30;;;;;;6097741;23;20011;-68
2022/08/23 12:24:01;;;;;;;1.92;1.02;;;29.30;47.40;;;;;;6097746;23;20429;-67
2022/08/23 12:26:42;;;;;;;1.92;0.95;;;29.30;48.10;;;;;;6097511;23;20006;-67
2022/08/23 12:29:26;;;;;;;1.23;0.97;;;29.40;47.70;;;;;;6098305;23;20018;-67
2022/08/23 12:32:12;;;;;;;1.67;0.90;;;29.50;47.90;;;;;;6072355;23;20566;-67
2022/08/23 12:34:44;;;;;;;1.42;0.70;;;29.70;47.40;;;;;;6097711;23;20013;-67
2022/08/23 12:37:24;;;;;;;2.25;0.98;;;29.90;47.20;;;;;;6097963;23;20011;-67
2022/08/23 12:39:57;;;;;;;3.15;1.10;;;30.00;47.00;;;;;;6097607;23;20010;-67
2022/08/23 12:42:36;;;;;;;1.67;0.90;;;30.20;47.10;;;;;;6097717;23;20054;-68
2022/08/23 12:45:19;;;;;;;1.65;1.00;;;30.40;46.70;;;;;;6097840;23;20058;-67
2022/08/23 12:47:56;;;;;;;1.73;0.77;;;30.50;46.60;;;;;;6097745;23;20010;-67
2022/08/23 12:50:32;;;;;;;2.55;1.13;;;30.60;46.80;;;;;;6097415;23;20017;-67
2022/08/23 12:53:06;;;;;;;3.85;1.00;;;30.70;46.60;;;;;;6097513;23;19998;-67
2022/08/23 12:55:43;;;;;;;3.00;1.27;;;30.70;46.70;;;;;;6097304;23;20512;-67
2022/08/23 12:58:10;;;;;;;3.13;1.00;;;30.80;47.00;;;;;;6097224;23;20010;-67
2022/08/23 13:00:42;;;;;;;2.58;1.02;;;30.90;46.10;;;;;;6097629;23;20049;-67
2022/08/23 13:03:18;;;;;;;1.20;0.90;;;31.00;45.80;;;;;;6097317;23;20325;-67
2022/08/23 13:05:53;;;;;;;1.27;0.82;;;31.10;46.00;;;;;;6097805;23;20307;-67
2022/08/23 13:08:23;;;;;;;3.38;0.95;;;31.20;45.80;;;;;;6097391;23;20026;-67
2022/08/23 13:10:50;;;;;;;4.35;1.00;;;31.30;44.80;;;;;;6097316;23;20011;-67
2022/08/23 13:13:22;;;;;;;1.85;0.93;;;31.40;45.20;;;;;;6097772;23;20425;-67
2022/08/23 13:15:55;;;;;;;2.13;1.02;;;31.40;45.10;;;;;;6097198;23;20025;-67
2022/08/23 13:18:24;;;;;;;4.57;1.08;;;31.50;45.10;;;;;;6097152;23;20047;-67